sensor_id;sensor_type;location;lat;lon;timestamp;P1;durP1;ratioP1;P2;durP2;ratioP2
10299;SDS011;5195;48.562;9.192;2023-04-28T00:00:27;4.15;;;3.85;;
10299;SDS011;5195;48.562;9.192;2023-04-28T00:02:53;5.03;;;3.77;;
10299;SDS011;5195;48.562;9.192;2023-04-28T00:05:18;4.23;;;3.93;;
10299;SDS011;5195;48.562;9.192;2023-04-28T00:07:44;5.30;;;4.00;;
10299;SDS011;5195;48.562;9.192;2023-04-28T00:10:09;4.68;;;4.37;;
10299;SDS011;5195;48.562;9.192;2023-04-28T00:12:37;4.90;;;4.60;;
10299;SDS011;5195;48.562;9.192;2023-04-28T00:15:03;5.13;;;4.77;;
10299;SDS011;5195;48.562;9.192;2023-04-28T00:17:28;5.20;;;4.80;;
10299;SDS011;5195;48.562;9.192;2023-04-28T00:19:54;4.17;;;3.87;;
10299;SDS011;5195;48.562;9.192;2023-04-28T00:22:19;5.20;;;4.00;;
10299;SDS011;5195;48.562;9.192;2023-04-28T00:24:45;4.37;;;4.05;;
10299;SDS011;5195;48.562;9.192;2023-04-28T00:27:10;4.60;;;4.20;;
10299;SDS011;5195;48.562;9.192;2023-04-28T00:29:37;4.95;;;4.53;;
10299;SDS011;5195;48.562;9.192;2023-04-28T00:32:02;4.90;;;4.50;;
10299;SDS011;5195;48.562;9.192;2023-04-28T00:34:31;10.13;;;4.53;;
10299;SDS011;5195;48.562;9.192;2023-04-28T00:36:53;4.57;;;4.27;;
10299;SDS011;5195;48.562;9.192;2023-04-28T00:39:20;5.20;;;4.80;;
10299;SDS011;5195;48.562;9.192;2023-04-28T00:41:46;5.57;;;5.07;;
10299;SDS011;5195;48.562;9.192;2023-04-28T00:44:11;6.03;;;5.37;;
10299;SDS011;5195;48.562;9.192;2023-04-28T00:46:37;5.18;;;4.85;;
10299;SDS011;5195;48.562;9.192;2023-04-28T00:49:03;4.47;;;4.27;;
10299;SDS011;5195;48.562;9.192;2023-04-28T00:51:28;5.10;;;4.70;;
10299;SDS011;5195;48.562;9.192;2023-04-28T00:53:54;5.10;;;4.63;;
10299;SDS011;5195;48.562;9.192;2023-04-28T00:56:19;5.00;;;4.60;;
10299;SDS011;5195;48.562;9.192;2023-04-28T00:58:45;4.93;;;4.53;;
10299;SDS011;5195;48.562;9.192;2023-04-28T01:01:11;5.28;;;4.87;;
10299;SDS011;5195;48.562;9.192;2023-04-28T01:03:37;4.80;;;4.50;;
10299;SDS011;5195;48.562;9.192;2023-04-28T01:06:06;4.50;;;4.30;;
10299;SDS011;5195;48.562;9.192;2023-04-28T01:08:31;4.10;;;3.80;;
10299;SDS011;5195;48.562;9.192;2023-04-28T01:10:57;3.87;;;3.57;;
10299;SDS011;5195;48.562;9.192;2023-04-28T01:13:22;3.53;;;3.33;;
10299;SDS011;5195;48.562;9.192;2023-04-28T01:15:48;4.15;;;3.80;;
10299;SDS011;5195;48.562;9.192;2023-04-28T01:18:13;4.70;;;4.37;;
10299;SDS011;5195;48.562;9.192;2023-04-28T01:20:39;5.07;;;4.78;;
10299;SDS011;5195;48.562;9.192;2023-04-28T01:23:10;4.62;;;4.32;;
10299;SDS011;5195;48.562;9.192;2023-04-28T01:25:31;4.03;;;3.70;;
10299;SDS011;5195;48.562;9.192;2023-04-28T01:27:56;5.03;;;4.53;;
10299;SDS011;5195;48.562;9.192;2023-04-28T01:30:23;4.47;;;4.18;;
10299;SDS011;5195;48.562;9.192;2023-04-28T01:32:49;4.27;;;3.77;;
10299;SDS011;5195;48.562;9.192;2023-04-28T01:35:14;3.90;;;3.60;;
10299;SDS011;5195;48.562;9.192;2023-04-28T01:37:40;3.90;;;3.70;;
10299;SDS011;5195;48.562;9.192;2023-04-28T01:40:05;3.67;;;3.47;;
10299;SDS011;5195;48.562;9.192;2023-04-28T01:42:31;5.07;;;3.80;;
10299;SDS011;5195;48.562;9.192;2023-04-28T01:44:57;3.80;;;3.50;;
10299;SDS011;5195;48.562;9.192;2023-04-28T01:47:22;3.92;;;3.62;;
10299;SDS011;5195;48.562;9.192;2023-04-28T01:49:48;3.87;;;3.60;;
10299;SDS011;5195;48.562;9.192;2023-04-28T01:52:13;4.37;;;3.67;;
10299;SDS011;5195;48.562;9.192;2023-04-28T01:54:39;4.03;;;3.72;;
10299;SDS011;5195;48.562;9.192;2023-04-28T01:57:05;3.40;;;3.20;;
10299;SDS011;5195;48.562;9.192;2023-04-28T01:59:32;3.70;;;3.40;;
10299;SDS011;5195;48.562;9.192;2023-04-28T02:01:58;3.50;;;3.30;;
10299;SDS011;5195;48.562;9.192;2023-04-28T02:04:24;3.60;;;3.40;;
10299;SDS011;5195;48.562;9.192;2023-04-28T02:06:49;3.70;;;3.50;;
10299;SDS011;5195;48.562;9.192;2023-04-28T02:09:15;3.83;;;3.53;;
10299;SDS011;5195;48.562;9.192;2023-04-28T02:11:41;3.63;;;3.43;;
10299;SDS011;5195;48.562;9.192;2023-04-28T02:14:07;3.80;;;3.50;;
10299;SDS011;5195;48.562;9.192;2023-04-28T02:16:32;4.07;;;3.50;;
10299;SDS011;5195;48.562;9.192;2023-04-28T02:18:58;3.85;;;3.58;;
10299;SDS011;5195;48.562;9.192;2023-04-28T02:21:24;4.37;;;3.97;;
10299;SDS011;5195;48.562;9.192;2023-04-28T02:23:49;3.65;;;3.45;;
10299;SDS011;5195;48.562;9.192;2023-04-28T02:26:15;3.73;;;3.50;;
10299;SDS011;5195;48.562;9.192;2023-04-28T02:28:40;3.83;;;3.60;;
10299;SDS011;5195;48.562;9.192;2023-04-28T02:31:10;3.80;;;3.50;;
10299;SDS011;5195;48.562;9.192;2023-04-28T02:33:35;4.10;;;3.80;;
10299;SDS011;5195;48.562;9.192;2023-04-28T02:36:01;3.30;;;3.10;;
10299;SDS011;5195;48.562;9.192;2023-04-28T02:38:26;4.30;;;3.40;;
10299;SDS011;5195;48.562;9.192;2023-04-28T02:40:59;4.10;;;3.80;;
10299;SDS011;5195;48.562;9.192;2023-04-28T02:43:27;3.70;;;3.40;;
10299;SDS011;5195;48.562;9.192;2023-04-28T02:45:52;4.15;;;3.87;;
10299;SDS011;5195;48.562;9.192;2023-04-28T02:48:18;4.17;;;3.40;;
10299;SDS011;5195;48.562;9.192;2023-04-28T02:50:43;4.10;;;3.80;;
10299;SDS011;5195;48.562;9.192;2023-04-28T02:53:09;3.80;;;3.60;;
10299;SDS011;5195;48.562;9.192;2023-04-28T02:55:34;4.00;;;3.80;;
10299;SDS011;5195;48.562;9.192;2023-04-28T02:58:00;3.67;;;3.37;;
10299;SDS011;5195;48.562;9.192;2023-04-28T03:00:26;4.10;;;3.75;;
10299;SDS011;5195;48.562;9.192;2023-04-28T03:02:51;3.97;;;3.35;;
10299;SDS011;5195;48.562;9.192;2023-04-28T03:05:17;11.38;;;10.27;;
10299;SDS011;5195;48.562;9.192;2023-04-28T03:07:42;23.07;;;20.70;;
10299;SDS011;5195;48.562;9.192;2023-04-28T03:10:08;5.10;;;4.70;;
10299;SDS011;5195;48.562;9.192;2023-04-28T03:12:34;3.77;;;3.50;;
10299;SDS011;5195;48.562;9.192;2023-04-28T03:15:00;3.60;;;3.30;;
10299;SDS011;5195;48.562;9.192;2023-04-28T03:17:26;3.80;;;3.50;;
10299;SDS011;5195;48.562;9.192;2023-04-28T03:19:52;3.77;;;3.47;;
10299;SDS011;5195;48.562;9.192;2023-04-28T03:22:17;3.90;;;3.70;;
10299;SDS011;5195;48.562;9.192;2023-04-28T03:24:43;4.05;;;3.75;;
10299;SDS011;5195;48.562;9.192;2023-04-28T03:27:09;4.07;;;3.70;;
10299;SDS011;5195;48.562;9.192;2023-04-28T03:29:36;5.63;;;3.57;;
10299;SDS011;5195;48.562;9.192;2023-04-28T03:32:02;4.07;;;3.78;;
10299;SDS011;5195;48.562;9.192;2023-04-28T03:34:28;4.10;;;3.80;;
10299;SDS011;5195;48.562;9.192;2023-04-28T03:36:53;4.95;;;3.78;;
10299;SDS011;5195;48.562;9.192;2023-04-28T03:39:19;4.87;;;3.40;;
10299;SDS011;5195;48.562;9.192;2023-04-28T03:41:45;4.80;;;4.05;;
10299;SDS011;5195;48.562;9.192;2023-04-28T03:44:11;5.30;;;4.60;;
10299;SDS011;5195;48.562;9.192;2023-04-28T03:46:36;6.03;;;4.53;;
10299;SDS011;5195;48.562;9.192;2023-04-28T03:49:03;4.75;;;4.35;;
10299;SDS011;5195;48.562;9.192;2023-04-28T03:51:28;6.83;;;4.60;;
10299;SDS011;5195;48.562;9.192;2023-04-28T03:53:55;5.50;;;4.80;;
10299;SDS011;5195;48.562;9.192;2023-04-28T03:56:20;5.37;;;5.07;;
10299;SDS011;5195;48.562;9.192;2023-04-28T03:58:46;5.95;;;5.05;;
10299;SDS011;5195;48.562;9.192;2023-04-28T04:01:11;5.55;;;4.60;;
10299;SDS011;5195;48.562;9.192;2023-04-28T04:03:38;7.72;;;4.70;;
10299;SDS011;5195;48.562;9.192;2023-04-28T04:06:04;5.70;;;5.07;;
10299;SDS011;5195;48.562;9.192;2023-04-28T04:08:29;5.53;;;5.03;;
10299;SDS011;5195;48.562;9.192;2023-04-28T04:10:55;5.62;;;5.22;;
10299;SDS011;5195;48.562;9.192;2023-04-28T04:13:21;5.70;;;5.20;;
10299;SDS011;5195;48.562;9.192;2023-04-28T04:15:46;7.45;;;6.78;;
10299;SDS011;5195;48.562;9.192;2023-04-28T04:18:19;7.53;;;5.60;;
10299;SDS011;5195;48.562;9.192;2023-04-28T04:20:47;5.10;;;4.70;;
10299;SDS011;5195;48.562;9.192;2023-04-28T04:23:14;5.67;;;5.27;;
10299;SDS011;5195;48.562;9.192;2023-04-28T04:25:39;6.30;;;5.90;;
10299;SDS011;5195;48.562;9.192;2023-04-28T04:28:05;6.15;;;5.65;;
10299;SDS011;5195;48.562;9.192;2023-04-28T04:30:30;5.80;;;5.30;;
10299;SDS011;5195;48.562;9.192;2023-04-28T04:32:58;5.43;;;5.13;;
10299;SDS011;5195;48.562;9.192;2023-04-28T04:35:24;6.63;;;5.43;;
10299;SDS011;5195;48.562;9.192;2023-04-28T04:37:49;5.60;;;5.20;;
10299;SDS011;5195;48.562;9.192;2023-04-28T04:40:15;6.40;;;5.97;;
10299;SDS011;5195;48.562;9.192;2023-04-28T04:42:41;5.90;;;5.43;;
10299;SDS011;5195;48.562;9.192;2023-04-28T04:45:06;7.82;;;5.68;;
10299;SDS011;5195;48.562;9.192;2023-04-28T04:47:32;5.80;;;5.30;;
10299;SDS011;5195;48.562;9.192;2023-04-28T04:49:57;4.93;;;4.63;;
10299;SDS011;5195;48.562;9.192;2023-04-28T04:52:23;5.43;;;5.00;;
10299;SDS011;5195;48.562;9.192;2023-04-28T04:54:49;5.67;;;5.20;;
10299;SDS011;5195;48.562;9.192;2023-04-28T04:57:15;7.80;;;5.50;;
10299;SDS011;5195;48.562;9.192;2023-04-28T04:59:40;6.10;;;5.70;;
10299;SDS011;5195;48.562;9.192;2023-04-28T05:02:06;5.80;;;5.30;;
10299;SDS011;5195;48.562;9.192;2023-04-28T05:04:31;5.87;;;5.47;;
10299;SDS011;5195;48.562;9.192;2023-04-28T05:06:57;5.47;;;5.07;;
10299;SDS011;5195;48.562;9.192;2023-04-28T05:09:25;6.17;;;5.67;;
10299;SDS011;5195;48.562;9.192;2023-04-28T05:11:51;5.83;;;5.43;;
10299;SDS011;5195;48.562;9.192;2023-04-28T05:14:17;5.85;;;5.35;;
10299;SDS011;5195;48.562;9.192;2023-04-28T05:16:42;5.93;;;5.57;;
10299;SDS011;5195;48.562;9.192;2023-04-28T05:19:08;5.97;;;5.47;;
10299;SDS011;5195;48.562;9.192;2023-04-28T05:21:34;4.70;;;4.50;;
10299;SDS011;5195;48.562;9.192;2023-04-28T05:24:01;5.30;;;4.97;;
10299;SDS011;5195;48.562;9.192;2023-04-28T05:26:26;5.13;;;4.70;;
10299;SDS011;5195;48.562;9.192;2023-04-28T05:28:53;4.80;;;4.50;;
10299;SDS011;5195;48.562;9.192;2023-04-28T05:31:18;5.23;;;4.83;;
10299;SDS011;5195;48.562;9.192;2023-04-28T05:33:44;4.77;;;4.47;;
10299;SDS011;5195;48.562;9.192;2023-04-28T05:36:09;5.50;;;5.10;;
10299;SDS011;5195;48.562;9.192;2023-04-28T05:38:35;4.77;;;4.37;;
10299;SDS011;5195;48.562;9.192;2023-04-28T05:41:00;5.83;;;5.33;;
10299;SDS011;5195;48.562;9.192;2023-04-28T05:43:26;5.37;;;4.97;;
10299;SDS011;5195;48.562;9.192;2023-04-28T05:45:52;5.93;;;5.43;;
10299;SDS011;5195;48.562;9.192;2023-04-28T05:48:18;5.23;;;4.83;;
10299;SDS011;5195;48.562;9.192;2023-04-28T05:50:43;5.37;;;4.97;;
10299;SDS011;5195;48.562;9.192;2023-04-28T05:53:09;5.10;;;4.70;;
10299;SDS011;5195;48.562;9.192;2023-04-28T05:55:35;4.33;;;4.13;;
10299;SDS011;5195;48.562;9.192;2023-04-28T05:58:04;4.33;;;4.13;;
10299;SDS011;5195;48.562;9.192;2023-04-28T06:00:31;4.67;;;4.27;;
10299;SDS011;5195;48.562;9.192;2023-04-28T06:02:55;4.80;;;4.50;;
10299;SDS011;5195;48.562;9.192;2023-04-28T06:05:21;5.00;;;4.60;;
10299;SDS011;5195;48.562;9.192;2023-04-28T06:07:46;5.00;;;4.60;;
10299;SDS011;5195;48.562;9.192;2023-04-28T06:10:12;5.40;;;5.00;;
10299;SDS011;5195;48.562;9.192;2023-04-28T06:12:38;5.33;;;4.93;;
10299;SDS011;5195;48.562;9.192;2023-04-28T06:15:03;4.77;;;4.37;;
10299;SDS011;5195;48.562;9.192;2023-04-28T06:17:30;4.60;;;4.30;;
10299;SDS011;5195;48.562;9.192;2023-04-28T06:19:57;4.50;;;4.30;;
10299;SDS011;5195;48.562;9.192;2023-04-28T06:22:23;4.40;;;4.10;;
10299;SDS011;5195;48.562;9.192;2023-04-28T06:24:48;4.97;;;4.57;;
10299;SDS011;5195;48.562;9.192;2023-04-28T06:27:14;4.53;;;4.25;;
10299;SDS011;5195;48.562;9.192;2023-04-28T06:29:39;4.75;;;4.45;;
10299;SDS011;5195;48.562;9.192;2023-04-28T06:32:05;7.75;;;7.15;;
10299;SDS011;5195;48.562;9.192;2023-04-28T06:34:31;7.90;;;7.40;;
10299;SDS011;5195;48.562;9.192;2023-04-28T06:36:57;6.97;;;6.57;;
10299;SDS011;5195;48.562;9.192;2023-04-28T06:39:22;6.75;;;6.25;;
10299;SDS011;5195;48.562;9.192;2023-04-28T06:41:48;7.12;;;6.70;;
10299;SDS011;5195;48.562;9.192;2023-04-28T06:44:14;8.30;;;7.63;;
10299;SDS011;5195;48.562;9.192;2023-04-28T06:46:39;9.97;;;9.10;;
10299;SDS011;5195;48.562;9.192;2023-04-28T06:49:06;6.80;;;6.30;;
10299;SDS011;5195;48.562;9.192;2023-04-28T06:51:32;7.53;;;6.90;;
10299;SDS011;5195;48.562;9.192;2023-04-28T06:53:57;6.07;;;5.57;;
10299;SDS011;5195;48.562;9.192;2023-04-28T06:56:23;6.13;;;5.63;;
10299;SDS011;5195;48.562;9.192;2023-04-28T06:58:48;6.90;;;6.40;;
10299;SDS011;5195;48.562;9.192;2023-04-28T07:01:14;5.50;;;5.20;;
10299;SDS011;5195;48.562;9.192;2023-04-28T07:03:40;7.23;;;6.63;;
10299;SDS011;5195;48.562;9.192;2023-04-28T07:06:06;7.30;;;6.70;;
10299;SDS011;5195;48.562;9.192;2023-04-28T07:08:33;7.77;;;7.17;;
10299;SDS011;5195;48.562;9.192;2023-04-28T07:10:58;6.40;;;5.77;;
10299;SDS011;5195;48.562;9.192;2023-04-28T07:13:24;17.80;;;16.20;;
10299;SDS011;5195;48.562;9.192;2023-04-28T07:15:49;6.97;;;6.47;;
10299;SDS011;5195;48.562;9.192;2023-04-28T07:18:15;6.77;;;6.30;;
10299;SDS011;5195;48.562;9.192;2023-04-28T07:20:41;6.10;;;5.70;;
10299;SDS011;5195;48.562;9.192;2023-04-28T07:23:07;5.15;;;4.85;;
10299;SDS011;5195;48.562;9.192;2023-04-28T07:25:32;4.73;;;4.30;;
10299;SDS011;5195;48.562;9.192;2023-04-28T07:27:58;5.40;;;4.90;;
10299;SDS011;5195;48.562;9.192;2023-04-28T07:30:23;6.25;;;5.75;;
10299;SDS011;5195;48.562;9.192;2023-04-28T07:32:49;5.80;;;5.30;;
10299;SDS011;5195;48.562;9.192;2023-04-28T07:35:14;7.25;;;6.80;;
10299;SDS011;5195;48.562;9.192;2023-04-28T07:37:40;8.67;;;8.07;;
10299;SDS011;5195;48.562;9.192;2023-04-28T07:40:06;11.77;;;11.00;;
10299;SDS011;5195;48.562;9.192;2023-04-28T07:42:31;7.80;;;7.30;;
10299;SDS011;5195;48.562;9.192;2023-04-28T07:44:57;4.20;;;3.90;;
10299;SDS011;5195;48.562;9.192;2023-04-28T07:47:23;5.63;;;5.27;;
10299;SDS011;5195;48.562;9.192;2023-04-28T07:49:48;11.88;;;11.02;;
10299;SDS011;5195;48.562;9.192;2023-04-28T07:52:14;12.47;;;11.40;;
10299;SDS011;5195;48.562;9.192;2023-04-28T07:54:39;12.73;;;11.70;;
10299;SDS011;5195;48.562;9.192;2023-04-28T07:57:05;7.32;;;6.93;;
10299;SDS011;5195;48.562;9.192;2023-04-28T07:59:32;6.00;;;5.60;;
10299;SDS011;5195;48.562;9.192;2023-04-28T08:01:56;13.43;;;12.43;;
10299;SDS011;5195;48.562;9.192;2023-04-28T08:04:22;6.30;;;5.80;;
10299;SDS011;5195;48.562;9.192;2023-04-28T08:06:47;8.20;;;7.70;;
10299;SDS011;5195;48.562;9.192;2023-04-28T08:09:13;11.60;;;10.80;;
10299;SDS011;5195;48.562;9.192;2023-04-28T08:11:39;30.63;;;28.13;;
10299;SDS011;5195;48.562;9.192;2023-04-28T08:14:05;19.40;;;17.60;;
10299;SDS011;5195;48.562;9.192;2023-04-28T08:16:31;13.27;;;12.23;;
10299;SDS011;5195;48.562;9.192;2023-04-28T08:18:57;10.90;;;10.18;;
10299;SDS011;5195;48.562;9.192;2023-04-28T08:21:22;19.77;;;18.17;;
10299;SDS011;5195;48.562;9.192;2023-04-28T08:23:47;18.27;;;16.47;;
10299;SDS011;5195;48.562;9.192;2023-04-28T08:26:14;21.67;;;19.57;;
10299;SDS011;5195;48.562;9.192;2023-04-28T08:28:39;26.57;;;24.30;;
10299;SDS011;5195;48.562;9.192;2023-04-28T08:31:06;14.33;;;13.00;;
10299;SDS011;5195;48.562;9.192;2023-04-28T08:33:31;10.10;;;9.23;;
10299;SDS011;5195;48.562;9.192;2023-04-28T08:35:57;8.23;;;7.53;;
10299;SDS011;5195;48.562;9.192;2023-04-28T08:38:22;9.77;;;8.98;;
10299;SDS011;5195;48.562;9.192;2023-04-28T08:40:49;10.07;;;9.30;;
10299;SDS011;5195;48.562;9.192;2023-04-28T08:43:14;8.03;;;7.43;;
10299;SDS011;5195;48.562;9.192;2023-04-28T08:45:41;7.57;;;7.07;;
10299;SDS011;5195;48.562;9.192;2023-04-28T08:48:06;6.73;;;6.27;;
10299;SDS011;5195;48.562;9.192;2023-04-28T08:50:31;7.97;;;7.37;;
10299;SDS011;5195;48.562;9.192;2023-04-28T08:52:57;6.00;;;5.60;;
10299;SDS011;5195;48.562;9.192;2023-04-28T08:55:23;6.20;;;5.70;;
10299;SDS011;5195;48.562;9.192;2023-04-28T08:57:49;6.20;;;5.80;;
10299;SDS011;5195;48.562;9.192;2023-04-28T09:00:14;7.22;;;5.35;;
10299;SDS011;5195;48.562;9.192;2023-04-28T09:02:40;7.97;;;7.43;;
10299;SDS011;5195;48.562;9.192;2023-04-28T09:05:06;5.80;;;5.50;;
10299;SDS011;5195;48.562;9.192;2023-04-28T09:07:34;7.10;;;6.60;;
10299;SDS011;5195;48.562;9.192;2023-04-28T09:12:41;7.70;;;7.20;;
10299;SDS011;5195;48.562;9.192;2023-04-28T09:15:07;7.47;;;6.97;;
10299;SDS011;5195;48.562;9.192;2023-04-28T09:17:33;5.72;;;5.32;;
10299;SDS011;5195;48.562;9.192;2023-04-28T09:19:59;6.72;;;6.32;;
10299;SDS011;5195;48.562;9.192;2023-04-28T09:22:27;6.40;;;6.00;;
10299;SDS011;5195;48.562;9.192;2023-04-28T09:24:53;6.67;;;6.23;;
10299;SDS011;5195;48.562;9.192;2023-04-28T09:27:24;6.00;;;5.60;;
10299;SDS011;5195;48.562;9.192;2023-04-28T09:29:52;4.83;;;4.53;;
10299;SDS011;5195;48.562;9.192;2023-04-28T09:32:18;6.20;;;5.70;;
10299;SDS011;5195;48.562;9.192;2023-04-28T09:37:22;5.60;;;5.20;;
10299;SDS011;5195;48.562;9.192;2023-04-28T09:39:49;5.80;;;5.40;;
10299;SDS011;5195;48.562;9.192;2023-04-28T09:47:35;8.27;;;7.47;;
10299;SDS011;5195;48.562;9.192;2023-04-28T09:50:01;7.17;;;6.67;;
10299;SDS011;5195;48.562;9.192;2023-04-28T09:52:27;5.07;;;4.67;;
10299;SDS011;5195;48.562;9.192;2023-04-28T09:54:53;6.20;;;5.70;;
10299;SDS011;5195;48.562;9.192;2023-04-28T09:57:19;3.67;;;3.37;;
10299;SDS011;5195;48.562;9.192;2023-04-28T09:59:51;5.77;;;5.23;;
10299;SDS011;5195;48.562;9.192;2023-04-28T10:02:13;4.80;;;4.40;;
10299;SDS011;5195;48.562;9.192;2023-04-28T10:04:38;5.40;;;5.00;;
10299;SDS011;5195;48.562;9.192;2023-04-28T10:07:05;5.95;;;5.55;;
10299;SDS011;5195;48.562;9.192;2023-04-28T10:09:30;6.47;;;5.87;;
10299;SDS011;5195;48.562;9.192;2023-04-28T10:11:56;4.72;;;4.32;;
10299;SDS011;5195;48.562;9.192;2023-04-28T10:14:22;3.93;;;3.43;;
10299;SDS011;5195;48.562;9.192;2023-04-28T10:16:48;2.83;;;2.60;;
10299;SDS011;5195;48.562;9.192;2023-04-28T10:19:13;2.60;;;2.50;;
10299;SDS011;5195;48.562;9.192;2023-04-28T10:21:46;3.10;;;2.80;;
10299;SDS011;5195;48.562;9.192;2023-04-28T10:29:22;4.00;;;3.70;;
10299;SDS011;5195;48.562;9.192;2023-04-28T10:34:33;3.07;;;2.77;;
10299;SDS011;5195;48.562;9.192;2023-04-28T10:36:59;1.90;;;1.80;;
10299;SDS011;5195;48.562;9.192;2023-04-28T10:39:25;1.30;;;1.30;;
10299;SDS011;5195;48.562;9.192;2023-04-28T10:41:50;2.10;;;1.30;;
10299;SDS011;5195;48.562;9.192;2023-04-28T10:47:05;1.00;;;1.00;;
10299;SDS011;5195;48.562;9.192;2023-04-28T11:00:46;0.80;;;0.80;;
10299;SDS011;5195;48.562;9.192;2023-04-28T11:06:43;0.97;;;0.97;;
10299;SDS011;5195;48.562;9.192;2023-04-28T11:08:45;0.90;;;0.90;;
10299;SDS011;5195;48.562;9.192;2023-04-28T11:11:15;0.70;;;0.70;;
10299;SDS011;5195;48.562;9.192;2023-04-28T11:13:40;0.70;;;0.70;;
10299;SDS011;5195;48.562;9.192;2023-04-28T11:16:06;0.40;;;0.40;;
10299;SDS011;5195;48.562;9.192;2023-04-28T11:19:08;0.50;;;0.50;;
10299;SDS011;5195;48.562;9.192;2023-04-28T11:21:18;1.00;;;0.60;;
10299;SDS011;5195;48.562;9.192;2023-04-28T11:23:43;0.43;;;0.43;;
10299;SDS011;5195;48.562;9.192;2023-04-28T11:26:08;1.27;;;0.47;;
10299;SDS011;5195;48.562;9.192;2023-04-28T11:28:34;0.40;;;0.40;;
10299;SDS011;5195;48.562;9.192;2023-04-28T11:31:15;0.50;;;0.50;;
10299;SDS011;5195;48.562;9.192;2023-04-28T11:33:37;0.40;;;0.40;;
10299;SDS011;5195;48.562;9.192;2023-04-28T11:36:02;0.50;;;0.50;;
10299;SDS011;5195;48.562;9.192;2023-04-28T11:38:28;0.30;;;0.30;;
10299;SDS011;5195;48.562;9.192;2023-04-28T11:40:57;0.40;;;0.40;;
10299;SDS011;5195;48.562;9.192;2023-04-28T11:43:29;0.30;;;0.30;;
10299;SDS011;5195;48.562;9.192;2023-04-28T11:45:56;0.43;;;0.43;;
10299;SDS011;5195;48.562;9.192;2023-04-28T11:48:22;0.40;;;0.40;;
10299;SDS011;5195;48.562;9.192;2023-04-28T11:50:47;0.50;;;0.47;;
10299;SDS011;5195;48.562;9.192;2023-04-28T11:53:13;0.40;;;0.40;;
10299;SDS011;5195;48.562;9.192;2023-04-28T11:55:38;0.60;;;0.40;;
10299;SDS011;5195;48.562;9.192;2023-04-28T11:58:18;1.20;;;0.40;;
10299;SDS011;5195;48.562;9.192;2023-04-28T12:00:44;0.30;;;0.30;;
10299;SDS011;5195;48.562;9.192;2023-04-28T12:03:09;0.40;;;0.40;;
10299;SDS011;5195;48.562;9.192;2023-04-28T12:05:42;0.33;;;0.33;;
10299;SDS011;5195;48.562;9.192;2023-04-28T12:08:01;1.10;;;0.40;;
10299;SDS011;5195;48.562;9.192;2023-04-28T12:10:27;2.73;;;0.23;;
10299;SDS011;5195;48.562;9.192;2023-04-28T12:12:53;0.93;;;0.50;;
10299;SDS011;5195;48.562;9.192;2023-04-28T12:15:19;0.30;;;0.30;;
10299;SDS011;5195;48.562;9.192;2023-04-28T12:17:45;0.43;;;0.43;;
10299;SDS011;5195;48.562;9.192;2023-04-28T12:20:12;1.02;;;0.40;;
10299;SDS011;5195;48.562;9.192;2023-04-28T12:22:45;0.50;;;0.50;;
10299;SDS011;5195;48.562;9.192;2023-04-28T12:25:09;0.45;;;0.40;;
10299;SDS011;5195;48.562;9.192;2023-04-28T12:27:35;0.80;;;0.47;;
10299;SDS011;5195;48.562;9.192;2023-04-28T12:30:00;0.43;;;0.43;;
10299;SDS011;5195;48.562;9.192;2023-04-28T12:32:36;0.33;;;0.30;;
10299;SDS011;5195;48.562;9.192;2023-04-28T12:35:01;0.50;;;0.50;;
10299;SDS011;5195;48.562;9.192;2023-04-28T12:37:26;1.30;;;0.40;;
10299;SDS011;5195;48.562;9.192;2023-04-28T12:39:52;0.82;;;0.45;;
10299;SDS011;5195;48.562;9.192;2023-04-28T12:42:18;0.80;;;0.50;;
10299;SDS011;5195;48.562;9.192;2023-04-28T12:44:44;0.93;;;0.33;;
10299;SDS011;5195;48.562;9.192;2023-04-28T12:47:09;0.50;;;0.50;;
10299;SDS011;5195;48.562;9.192;2023-04-28T12:49:35;0.40;;;0.40;;
10299;SDS011;5195;48.562;9.192;2023-04-28T12:52:01;0.33;;;0.27;;
10299;SDS011;5195;48.562;9.192;2023-04-28T12:54:26;0.47;;;0.40;;
10299;SDS011;5195;48.562;9.192;2023-04-28T12:56:52;0.40;;;0.40;;
10299;SDS011;5195;48.562;9.192;2023-04-28T12:59:18;2.20;;;0.60;;
10299;SDS011;5195;48.562;9.192;2023-04-28T13:01:44;0.50;;;0.50;;
10299;SDS011;5195;48.562;9.192;2023-04-28T13:04:10;0.40;;;0.40;;
10299;SDS011;5195;48.562;9.192;2023-04-28T13:06:36;0.30;;;0.30;;
10299;SDS011;5195;48.562;9.192;2023-04-28T13:09:01;0.40;;;0.40;;
10299;SDS011;5195;48.562;9.192;2023-04-28T13:11:27;0.40;;;0.40;;
10299;SDS011;5195;48.562;9.192;2023-04-28T13:13:52;0.77;;;0.40;;
10299;SDS011;5195;48.562;9.192;2023-04-28T13:16:18;0.30;;;0.30;;
10299;SDS011;5195;48.562;9.192;2023-04-28T13:18:44;0.40;;;0.40;;
10299;SDS011;5195;48.562;9.192;2023-04-28T13:21:09;1.70;;;0.50;;
10299;SDS011;5195;48.562;9.192;2023-04-28T13:23:35;0.50;;;0.50;;
10299;SDS011;5195;48.562;9.192;2023-04-28T13:26:01;0.40;;;0.40;;
10299;SDS011;5195;48.562;9.192;2023-04-28T13:28:27;0.40;;;0.40;;
10299;SDS011;5195;48.562;9.192;2023-04-28T13:30:52;1.60;;;0.47;;
10299;SDS011;5195;48.562;9.192;2023-04-28T13:33:18;0.80;;;0.40;;
10299;SDS011;5195;48.562;9.192;2023-04-28T13:35:43;0.80;;;0.40;;
10299;SDS011;5195;48.562;9.192;2023-04-28T13:38:09;1.00;;;0.57;;
10299;SDS011;5195;48.562;9.192;2023-04-28T13:40:34;0.50;;;0.40;;
10299;SDS011;5195;48.562;9.192;2023-04-28T13:43:00;0.85;;;0.52;;
10299;SDS011;5195;48.562;9.192;2023-04-28T13:45:25;0.77;;;0.43;;
10299;SDS011;5195;48.562;9.192;2023-04-28T13:47:52;0.57;;;0.55;;
10299;SDS011;5195;48.562;9.192;2023-04-28T13:50:17;1.07;;;0.60;;
10299;SDS011;5195;48.562;9.192;2023-04-28T13:52:42;1.03;;;0.60;;
10299;SDS011;5195;48.562;9.192;2023-04-28T13:55:09;0.40;;;0.40;;
10299;SDS011;5195;48.562;9.192;2023-04-28T13:57:34;1.33;;;0.50;;
10299;SDS011;5195;48.562;9.192;2023-04-28T14:00:00;0.67;;;0.67;;
10299;SDS011;5195;48.562;9.192;2023-04-28T14:02:25;0.40;;;0.40;;
10299;SDS011;5195;48.562;9.192;2023-04-28T14:04:51;0.50;;;0.50;;
10299;SDS011;5195;48.562;9.192;2023-04-28T14:07:16;1.30;;;0.50;;
10299;SDS011;5195;48.562;9.192;2023-04-28T14:09:43;0.40;;;0.40;;
10299;SDS011;5195;48.562;9.192;2023-04-28T14:12:09;0.40;;;0.40;;
10299;SDS011;5195;48.562;9.192;2023-04-28T14:14:35;0.80;;;0.57;;
10299;SDS011;5195;48.562;9.192;2023-04-28T14:17:01;0.80;;;0.60;;
10299;SDS011;5195;48.562;9.192;2023-04-28T14:19:26;2.10;;;0.70;;
10299;SDS011;5195;48.562;9.192;2023-04-28T14:21:52;0.70;;;0.70;;
10299;SDS011;5195;48.562;9.192;2023-04-28T14:24:18;1.20;;;0.40;;
10299;SDS011;5195;48.562;9.192;2023-04-28T14:26:43;0.63;;;0.60;;
10299;SDS011;5195;48.562;9.192;2023-04-28T14:29:08;0.83;;;0.60;;
10299;SDS011;5195;48.562;9.192;2023-04-28T14:31:34;0.70;;;0.70;;
10299;SDS011;5195;48.562;9.192;2023-04-28T14:34:00;0.80;;;0.80;;
10299;SDS011;5195;48.562;9.192;2023-04-28T14:36:26;0.80;;;0.80;;
10299;SDS011;5195;48.562;9.192;2023-04-28T14:38:52;0.70;;;0.70;;
10299;SDS011;5195;48.562;9.192;2023-04-28T14:41:18;2.00;;;0.73;;
10299;SDS011;5195;48.562;9.192;2023-04-28T14:43:44;1.70;;;1.10;;
10299;SDS011;5195;48.562;9.192;2023-04-28T14:46:10;1.70;;;0.88;;
10299;SDS011;5195;48.562;9.192;2023-04-28T14:48:35;1.43;;;0.90;;
10299;SDS011;5195;48.562;9.192;2023-04-28T14:51:01;1.43;;;1.00;;
10299;SDS011;5195;48.562;9.192;2023-04-28T14:53:26;2.55;;;1.23;;
10299;SDS011;5195;48.562;9.192;2023-04-28T14:55:53;4.78;;;1.40;;
10299;SDS011;5195;48.562;9.192;2023-04-28T14:58:18;1.10;;;1.07;;
10299;SDS011;5195;48.562;9.192;2023-04-28T15:00:44;2.23;;;1.20;;
10299;SDS011;5195;48.562;9.192;2023-04-28T15:03:09;2.65;;;1.25;;
10299;SDS011;5195;48.562;9.192;2023-04-28T15:05:35;2.77;;;1.30;;
10299;SDS011;5195;48.562;9.192;2023-04-28T15:08:01;1.87;;;1.20;;
10299;SDS011;5195;48.562;9.192;2023-04-28T15:10:27;1.70;;;1.30;;
10299;SDS011;5195;48.562;9.192;2023-04-28T15:12:52;2.95;;;1.20;;
10299;SDS011;5195;48.562;9.192;2023-04-28T15:15:17;2.72;;;1.25;;
10299;SDS011;5195;48.562;9.192;2023-04-28T15:17:43;1.70;;;1.00;;
10299;SDS011;5195;48.562;9.192;2023-04-28T15:20:08;1.27;;;0.73;;
10299;SDS011;5195;48.562;9.192;2023-04-28T15:22:35;2.07;;;0.70;;
10299;SDS011;5195;48.562;9.192;2023-04-28T15:25:00;0.80;;;0.80;;
10299;SDS011;5195;48.562;9.192;2023-04-28T15:27:26;1.02;;;0.60;;